createdAt,value
2023-05-12T00:00:04.715Z,101049.80
2023-05-12T00:01:34.545Z,101044.25
2023-05-12T00:02:37.503Z,101053.98
2023-05-12T00:03:41.214Z,101057.36
2023-05-12T00:04:44.323Z,101053.20
2023-05-12T00:05:47.271Z,101058.92
2023-05-12T00:06:50.093Z,101050.79
2023-05-12T00:07:52.999Z,101055.30
2023-05-12T00:08:55.873Z,101056.64
2023-05-12T00:09:58.756Z,101058.60
2023-05-12T00:11:01.676Z,101049.85
2023-05-12T00:12:04.906Z,101054.35
2023-05-12T00:13:09.085Z,101052.45
2023-05-12T00:14:11.914Z,101054.59
2023-05-12T00:15:14.887Z,101052.54
2023-05-12T00:16:18.967Z,101055.63
2023-05-12T00:17:22.318Z,101050.84
2023-05-12T00:18:26.066Z,101049.94
2023-05-12T00:19:28.991Z,101055.14
2023-05-12T00:20:31.903Z,101057.47
2023-05-12T00:21:34.863Z,101052.92
2023-05-12T00:22:37.699Z,101056.80
2023-05-12T00:23:40.548Z,101060.60
2023-05-12T00:24:43.455Z,101055.77
2023-05-12T00:25:46.299Z,101052.34
2023-05-12T00:26:49.160Z,101059.50
2023-05-12T00:27:52.165Z,101061.27
2023-05-12T00:28:55.069Z,101060.66
2023-05-12T00:29:58.996Z,101060.52
2023-05-12T00:31:03.792Z,101053.63
2023-05-12T00:32:07.171Z,101062.20
2023-05-12T00:33:10.186Z,101061.23
2023-05-12T00:34:13.082Z,101063.04
2023-05-12T00:35:17.144Z,101055.55
2023-05-12T00:36:20.029Z,101059.77
2023-05-12T00:37:23.399Z,101063.40
2023-05-12T00:38:26.760Z,101060.45
2023-05-12T00:39:29.684Z,101063.52
2023-05-12T00:40:32.612Z,101061.98
2023-05-12T00:41:35.505Z,101060.36
2023-05-12T00:42:38.924Z,101064.73
2023-05-12T00:43:42.607Z,101060.98
2023-05-12T00:44:45.576Z,101066.98
2023-05-12T00:45:48.690Z,101060.39
2023-05-12T00:46:53.243Z,101063.70
2023-05-12T00:47:57.138Z,101063.34
2023-05-12T00:49:00.212Z,101062.69
2023-05-12T00:50:05.467Z,101071.25
2023-05-12T00:51:08.884Z,101066.29
2023-05-12T00:52:11.877Z,101068.67
2023-05-12T00:53:14.789Z,101065.50
2023-05-12T00:54:17.732Z,101067.83
2023-05-12T00:55:20.746Z,101075.41
2023-05-12T00:56:23.877Z,101068.23
2023-05-12T00:57:27.983Z,101068.42
2023-05-12T00:58:32.266Z,101075.54
2023-05-12T00:59:35.468Z,101076.77
2023-05-12T01:00:38.405Z,101072.80
2023-05-12T01:01:41.717Z,101074.38
2023-05-12T01:02:49.522Z,101075.15
2023-05-12T01:03:52.932Z,101081.95
2023-05-12T01:04:56.166Z,101073.82
2023-05-12T01:06:27.014Z,101076.13
2023-05-12T01:07:33.013Z,101071.60
2023-05-12T01:08:37.053Z,101080.80
2023-05-12T01:09:40.225Z,101073.96
2023-05-12T01:10:47.172Z,101080.07
2023-05-12T01:11:52.302Z,101078.29
2023-05-12T01:12:55.476Z,101074.39
2023-05-12T01:13:58.386Z,101074.43
2023-05-12T01:15:01.564Z,101080.05
2023-05-12T01:16:09.586Z,101076.60
2023-05-12T01:17:13.863Z,101084.66
2023-05-12T01:18:20.730Z,101084.67
2023-05-12T01:19:42.856Z,101087.73
2023-05-12T01:20:48.195Z,101076.88
2023-05-12T01:21:51.320Z,101080.58
2023-05-12T01:22:55.730Z,101080.99
2023-05-12T01:24:06.650Z,101085.61
2023-05-12T01:25:12.128Z,101086.41
2023-05-12T01:26:15.452Z,101083.17
2023-05-12T01:27:20.936Z,101086.14
2023-05-12T01:28:24.391Z,101091.61
2023-05-12T01:29:28.539Z,101086.87
2023-05-12T01:30:32.271Z,101081.70
2023-05-12T01:31:35.871Z,101085.02
2023-05-12T01:32:40.479Z,101085.85
2023-05-12T01:33:43.989Z,101086.03
2023-05-12T01:34:47.028Z,101086.30
2023-05-12T01:35:50.561Z,101087.59
2023-05-12T01:36:54.131Z,101086.41
2023-05-12T01:37:57.236Z,101079.81
2023-05-12T01:39:00.132Z,101085.94
2023-05-12T01:40:03.217Z,101085.32
2023-05-12T01:41:06.064Z,101083.34
2023-05-12T01:42:09.501Z,101091.58
2023-05-12T01:43:12.391Z,101084.00
2023-05-12T01:44:16.142Z,101085.25
2023-05-12T01:45:19.210Z,101086.02
2023-05-12T01:46:22.899Z,101089.13
2023-05-12T01:47:26.297Z,101086.62
2023-05-12T01:48:41.817Z,101089.10
2023-05-12T01:49:45.770Z,101096.14
2023-05-12T01:50:51.596Z,101094.39
2023-05-12T01:51:56.963Z,101094.15
2023-05-12T01:53:05.802Z,101095.54
2023-05-12T01:54:08.978Z,101089.02
2023-05-12T01:55:14.200Z,101097.27
2023-05-12T01:56:29.297Z,101088.70
2023-05-12T01:57:32.966Z,101098.05
2023-05-12T01:58:37.079Z,101094.92
2023-05-12T02:00:00.875Z,101098.86
2023-05-12T02:01:04.857Z,101089.45
2023-05-12T02:02:07.977Z,101093.41
2023-05-12T02:03:11.033Z,101096.63
2023-05-12T02:04:15.384Z,101095.67
2023-05-12T02:05:20.310Z,101099.92
2023-05-12T02:06:26.102Z,101098.98
2023-05-12T02:07:29.052Z,101098.14
2023-05-12T02:08:32.056Z,101090.11
2023-05-12T02:09:35.089Z,101093.52
2023-05-12T02:10:38.125Z,101095.98
2023-05-12T02:11:41.106Z,101090.27
2023-05-12T02:12:44.339Z,101092.77
2023-05-12T02:13:47.396Z,101097.75
2023-05-12T02:14:50.715Z,101089.89
2023-05-12T02:15:53.790Z,101095.48
2023-05-12T02:16:56.972Z,101092.27
2023-05-12T02:18:00.676Z,101091.91
2023-05-12T02:19:04.240Z,101088.41
2023-05-12T02:20:08.860Z,101093.41
2023-05-12T02:21:11.768Z,101095.85
2023-05-12T02:22:14.635Z,101092.25
2023-05-12T02:23:19.404Z,101096.14
2023-05-12T02:24:22.540Z,101096.80
2023-05-12T02:25:25.937Z,101093.36
2023-05-12T02:26:28.787Z,101101.41
2023-05-12T02:27:32.607Z,101093.39
2023-05-12T02:28:36.583Z,101099.52
2023-05-12T02:29:42.121Z,101100.52
2023-05-12T02:30:50.296Z,101096.85
2023-05-12T02:31:53.213Z,101100.70
2023-05-12T02:32:56.525Z,101104.65
2023-05-12T02:33:59.763Z,101098.27
2023-05-12T02:35:02.828Z,101099.52
2023-05-12T02:36:06.101Z,101104.96
2023-05-12T02:37:08.984Z,101101.11
2023-05-12T02:38:12.563Z,101102.59
2023-05-12T02:39:15.698Z,101103.19
2023-05-12T02:40:18.935Z,101100.58
2023-05-12T02:41:22.528Z,101105.72
2023-05-12T02:42:28.901Z,101107.32
2023-05-12T02:43:32.189Z,101105.38
2023-05-12T02:44:35.123Z,101103.98
2023-05-12T02:45:38.345Z,101101.55
2023-05-12T02:46:41.247Z,101113.01
2023-05-12T02:47:44.743Z,101115.05
2023-05-12T02:48:48.063Z,101115.60
2023-05-12T02:49:50.943Z,101111.29
2023-05-12T02:50:54.094Z,101117.44
2023-05-12T02:51:56.955Z,101110.32
2023-05-12T02:52:59.901Z,101113.09
2023-05-12T02:54:03.287Z,101115.00
2023-05-12T02:55:06.421Z,101117.25
2023-05-12T02:56:09.292Z,101120.90
2023-05-12T02:57:12.910Z,101117.19
2023-05-12T02:58:15.910Z,101116.60
2023-05-12T02:59:18.875Z,101118.50
2023-05-12T03:00:22.243Z,101116.80
2023-05-12T03:01:25.224Z,101115.61
2023-05-12T03:02:28.329Z,101123.18
2023-05-12T03:03:32.705Z,101119.50
2023-05-12T03:04:35.813Z,101121.41
2023-05-12T03:05:39.353Z,101113.62
2023-05-12T03:06:42.289Z,101120.25
2023-05-12T03:07:45.441Z,101127.30
2023-05-12T03:08:48.348Z,101123.90
2023-05-12T03:09:51.701Z,101119.35
2023-05-12T03:10:54.581Z,101124.14
2023-05-12T03:11:57.469Z,101121.38
2023-05-12T03:13:00.366Z,101116.34
2023-05-12T03:14:03.655Z,101116.95
2023-05-12T03:15:07.050Z,101114.80
2023-05-12T03:16:09.998Z,101118.71
2023-05-12T03:17:12.966Z,101118.27
2023-05-12T03:18:16.747Z,101116.61
2023-05-12T03:19:19.619Z,101121.20
2023-05-12T03:20:22.682Z,101116.06
2023-05-12T03:21:25.983Z,101121.11
2023-05-12T03:22:29.204Z,101123.52
2023-05-12T03:23:33.253Z,101121.02
2023-05-12T03:24:36.908Z,101119.58
2023-05-12T03:25:41.076Z,101126.02
2023-05-12T03:26:43.957Z,101127.55
2023-05-12T03:27:47.678Z,101121.77
2023-05-12T03:28:50.525Z,101121.36
2023-05-12T03:29:53.413Z,101124.21
2023-05-12T03:30:56.309Z,101120.02
2023-05-12T03:31:59.427Z,101121.25
2023-05-12T03:33:02.702Z,101118.43
2023-05-12T03:34:06.344Z,101121.87
2023-05-12T03:35:09.544Z,101124.18
2023-05-12T03:36:12.714Z,101129.05
2023-05-12T03:37:16.269Z,101127.73
2023-05-12T03:38:20.123Z,101125.28
2023-05-12T03:39:24.965Z,101125.10
2023-05-12T03:40:27.969Z,101123.31
2023-05-12T03:41:30.885Z,101125.34
2023-05-12T03:42:33.731Z,101124.84
2023-05-12T03:43:36.760Z,101128.67
2023-05-12T03:44:39.743Z,101134.65
2023-05-12T03:45:42.804Z,101134.51
2023-05-12T03:46:46.110Z,101134.89
2023-05-12T03:47:49.931Z,101130.36
2023-05-12T03:48:53.347Z,101137.30
2023-05-12T03:49:56.247Z,101134.08
2023-05-12T03:50:59.228Z,101132.89
2023-05-12T03:52:02.170Z,101130.77
2023-05-12T03:53:05.087Z,101132.04
2023-05-12T03:54:07.995Z,101130.68
2023-05-12T03:55:10.959Z,101133.48
2023-05-12T03:56:15.739Z,101135.97
2023-05-12T03:57:18.593Z,101134.20
2023-05-12T03:58:24.218Z,101136.88
2023-05-12T03:59:27.121Z,101138.05
2023-05-12T04:00:29.992Z,101142.90
2023-05-12T04:01:32.945Z,101139.69
2023-05-12T04:02:37.459Z,101138.36
2023-05-12T04:03:41.727Z,101150.98
2023-05-12T04:04:44.884Z,101148.41
2023-05-12T04:05:47.840Z,101143.79
2023-05-12T04:06:51.265Z,101142.55
2023-05-12T04:07:54.746Z,101146.38
2023-05-12T04:08:57.650Z,101144.26
2023-05-12T04:10:00.698Z,101148.39
2023-05-12T04:11:04.180Z,101146.83
2023-05-12T04:12:07.290Z,101151.51
2023-05-12T04:13:10.241Z,101149.89
2023-05-12T04:14:13.195Z,101146.17
2023-05-12T04:15:16.151Z,101148.57
2023-05-12T04:16:19.071Z,101151.07
2023-05-12T04:17:22.010Z,101153.75
2023-05-12T04:18:28.486Z,101153.23
2023-05-12T04:19:31.458Z,101161.86
2023-05-12T04:20:34.335Z,101155.30
2023-05-12T04:21:37.514Z,101154.17
2023-05-12T04:22:40.577Z,101162.73
2023-05-12T04:23:43.540Z,101159.61
2023-05-12T04:24:46.380Z,101161.02
2023-05-12T04:25:49.280Z,101158.91
2023-05-12T04:26:52.203Z,101157.39
2023-05-12T04:27:55.131Z,101157.64
2023-05-12T04:28:58.381Z,101160.73
2023-05-12T04:30:01.751Z,101158.77
2023-05-12T04:31:07.859Z,101161.22
2023-05-12T04:32:12.163Z,101154.40
2023-05-12T04:33:15.162Z,101153.08
2023-05-12T04:34:18.214Z,101153.13
2023-05-12T04:35:21.248Z,101159.75
2023-05-12T04:36:24.112Z,101152.19
2023-05-12T04:37:27.376Z,101161.45
2023-05-12T04:38:30.628Z,101153.96
2023-05-12T04:39:33.730Z,101154.42
2023-05-12T04:40:36.642Z,101161.93
2023-05-12T04:41:39.637Z,101154.54
2023-05-12T04:42:42.857Z,101159.67
2023-05-12T04:44:52.554Z,101166.66
2023-05-12T04:45:56.185Z,101161.34
2023-05-12T04:46:59.972Z,101164.06
2023-05-12T04:48:02.917Z,101161.58
2023-05-12T04:49:05.945Z,101165.71
2023-05-12T04:50:10.792Z,101167.41
2023-05-12T04:51:13.783Z,101168.37
2023-05-12T04:52:16.721Z,101163.53
2023-05-12T04:53:19.594Z,101164.95
2023-05-12T04:54:22.500Z,101168.76
2023-05-12T04:55:25.560Z,101164.33
2023-05-12T04:56:28.436Z,101171.62
2023-05-12T04:57:31.528Z,101168.19
2023-05-12T04:58:34.872Z,101168.02
2023-05-12T04:59:39.942Z,101167.81
2023-05-12T05:00:44.141Z,101171.64
2023-05-12T05:01:47.268Z,101169.75
2023-05-12T05:02:50.710Z,101169.65
2023-05-12T05:03:53.912Z,101170.98
2023-05-12T05:04:57.103Z,101172.14
2023-05-12T05:06:01.280Z,101175.27
2023-05-12T05:07:04.466Z,101171.52
2023-05-12T05:08:08.028Z,101176.57
2023-05-12T05:09:11.358Z,101180.92
2023-05-12T05:10:14.485Z,101181.35
2023-05-12T05:11:19.547Z,101179.27
2023-05-12T05:12:22.573Z,101184.16
2023-05-12T05:13:25.537Z,101176.55
2023-05-12T05:14:28.540Z,101186.47
2023-05-12T05:15:32.651Z,101183.19
2023-05-12T05:16:35.740Z,101181.80
2023-05-12T05:17:38.799Z,101183.80
2023-05-12T05:18:46.729Z,101182.00
2023-05-12T05:19:55.978Z,101183.13
2023-05-12T05:21:01.885Z,101179.66
2023-05-12T05:22:05.277Z,101182.24
2023-05-12T05:23:09.100Z,101181.27
2023-05-12T05:24:12.047Z,101187.80
2023-05-12T05:25:15.390Z,101189.44
2023-05-12T05:26:18.244Z,101185.39
2023-05-12T05:27:21.124Z,101194.97
2023-05-12T05:28:24.166Z,101182.87
2023-05-12T05:29:28.662Z,101184.73
2023-05-12T05:30:31.685Z,101186.73
2023-05-12T05:31:36.129Z,101179.02
2023-05-12T05:32:40.521Z,101186.27
2023-05-12T05:33:44.544Z,101181.65
2023-05-12T05:34:47.563Z,101193.92
2023-05-12T05:35:50.605Z,101194.01
2023-05-12T05:36:53.498Z,101189.11
2023-05-12T05:37:56.876Z,101198.58
2023-05-12T05:39:00.640Z,101189.23
2023-05-12T05:40:03.934Z,101193.46
2023-05-12T05:41:07.180Z,101195.04
2023-05-12T05:42:10.751Z,101202.38
2023-05-12T05:43:14.331Z,101197.65
2023-05-12T05:44:17.266Z,101192.94
2023-05-12T05:45:21.187Z,101189.61
2023-05-12T05:46:25.037Z,101192.37
2023-05-12T05:47:28.524Z,101194.13
2023-05-12T05:48:31.777Z,101192.70
2023-05-12T05:49:34.616Z,101197.87
2023-05-12T05:50:38.222Z,101194.48
2023-05-12T05:51:41.483Z,101198.04
2023-05-12T05:52:44.783Z,101192.60
2023-05-12T05:53:48.088Z,101191.30
2023-05-12T05:54:51.746Z,101194.66
2023-05-12T05:55:55.627Z,101190.64
2023-05-12T05:57:02.812Z,101194.48
2023-05-12T05:58:06.412Z,101194.42
2023-05-12T05:59:09.908Z,101197.54
2023-05-12T06:00:14.382Z,101198.05
2023-05-12T06:01:19.431Z,101197.14
2023-05-12T06:02:25.169Z,101199.54
2023-05-12T06:03:28.752Z,101192.29
2023-05-12T06:04:31.636Z,101196.80
2023-05-12T06:05:34.749Z,101198.96
2023-05-12T06:06:37.835Z,101198.23
2023-05-12T06:07:41.530Z,101198.61
2023-05-12T06:08:45.842Z,101199.08
2023-05-12T06:09:48.771Z,101201.53
2023-05-12T06:10:51.818Z,101199.52
2023-05-12T06:11:54.970Z,101200.85
2023-05-12T06:12:57.875Z,101202.31
2023-05-12T06:14:00.777Z,101205.17
2023-05-12T06:15:03.752Z,101216.16
2023-05-12T06:16:06.737Z,101210.11
2023-05-12T06:17:09.953Z,101208.11
2023-05-12T06:18:12.797Z,101213.25
2023-05-12T06:19:15.899Z,101207.08
2023-05-12T06:20:18.830Z,101208.36
2023-05-12T06:21:22.809Z,101203.89
2023-05-12T06:22:25.685Z,101211.40
2023-05-12T06:23:28.530Z,101207.14
2023-05-12T06:24:31.702Z,101209.89
2023-05-12T06:25:34.607Z,101212.08
2023-05-12T06:26:37.671Z,101213.14
2023-05-12T06:27:40.689Z,101209.55
2023-05-12T06:28:43.567Z,101206.56
2023-05-12T06:29:46.499Z,101204.65
2023-05-12T06:30:49.362Z,101207.66
2023-05-12T06:31:53.709Z,101204.48
2023-05-12T06:32:56.743Z,101208.71
2023-05-12T06:34:00.068Z,101209.27
2023-05-12T06:35:03.001Z,101210.11
2023-05-12T06:36:06.640Z,101206.98
2023-05-12T06:37:09.514Z,101203.48
2023-05-12T06:38:12.825Z,101205.79
2023-05-12T06:39:16.115Z,101210.73
2023-05-12T06:40:19.935Z,101211.45
2023-05-12T06:41:25.506Z,101212.21
2023-05-12T06:42:28.496Z,101207.66
2023-05-12T06:43:32.384Z,101208.91
2023-05-12T06:44:35.910Z,101205.61
2023-05-12T06:45:39.799Z,101208.72
2023-05-12T06:46:44.493Z,101213.16
2023-05-12T06:47:47.489Z,101212.48
2023-05-12T06:48:50.388Z,101214.68
2023-05-12T06:49:53.243Z,101210.67
2023-05-12T06:50:56.084Z,101211.50
2023-05-12T06:52:07.545Z,101212.45
2023-05-12T06:53:10.385Z,101213.64
2023-05-12T06:54:13.348Z,101211.35
2023-05-12T06:55:20.039Z,101213.48
2023-05-12T06:56:23.347Z,101215.55
2023-05-12T06:57:28.075Z,101213.40
2023-05-12T06:58:30.992Z,101213.69
2023-05-12T06:59:37.285Z,101213.34
2023-05-12T07:00:40.473Z,101216.00
2023-05-12T07:01:43.884Z,101214.75
2023-05-12T07:02:46.900Z,101214.46
2023-05-12T07:03:49.869Z,101217.05
2023-05-12T07:04:52.790Z,101214.92
2023-05-12T07:05:56.089Z,101208.40
2023-05-12T07:06:58.971Z,101211.89
2023-05-12T07:08:01.924Z,101211.12
2023-05-12T07:09:05.313Z,101208.09
2023-05-12T07:10:08.846Z,101206.02
2023-05-12T07:11:11.760Z,101209.67
2023-05-12T07:12:14.658Z,101209.05
2023-05-12T07:13:17.623Z,101212.20
2023-05-12T07:14:20.575Z,101211.31
2023-05-12T07:15:23.652Z,101214.25
2023-05-12T07:16:26.768Z,101213.13
2023-05-12T07:17:29.714Z,101214.45
2023-05-12T07:18:32.677Z,101214.06
2023-05-12T07:19:35.704Z,101210.84
2023-05-12T07:20:39.082Z,101217.38
2023-05-12T07:21:42.257Z,101216.93
2023-05-12T07:22:45.200Z,101213.42
2023-05-12T07:23:48.257Z,101212.90
2023-05-12T07:24:51.276Z,101216.72
2023-05-12T07:25:54.395Z,101211.86
2023-05-12T07:26:57.272Z,101216.63
2023-05-12T07:28:00.239Z,101215.85
2023-05-12T07:29:04.089Z,101213.73
2023-05-12T07:30:07.757Z,101221.17
2023-05-12T07:31:10.759Z,101214.77
2023-05-12T07:32:13.686Z,101211.84
2023-05-12T07:33:17.098Z,101219.37
2023-05-12T07:34:19.916Z,101213.45
2023-05-12T07:35:23.002Z,101217.86
2023-05-12T07:36:25.978Z,101219.27
2023-05-12T07:37:28.839Z,101216.09
2023-05-12T07:38:32.274Z,101217.91
2023-05-12T07:39:35.167Z,101220.04
2023-05-12T07:40:37.976Z,101220.85
2023-05-12T07:41:41.268Z,101219.13
2023-05-12T07:42:44.167Z,101219.98
2023-05-12T07:43:46.998Z,101215.15
2023-05-12T07:44:49.919Z,101217.31
2023-05-12T07:45:52.943Z,101216.92
2023-05-12T07:46:55.866Z,101216.67
2023-05-12T07:47:58.911Z,101216.45
2023-05-12T07:49:02.648Z,101220.45
2023-05-12T07:50:07.158Z,101225.39
2023-05-12T07:51:10.199Z,101221.21
2023-05-12T07:52:13.168Z,101223.75
2023-05-12T07:53:16.056Z,101218.26
2023-05-12T07:54:18.867Z,101217.45
2023-05-12T07:55:23.103Z,101221.56
2023-05-12T07:56:26.081Z,101220.05
2023-05-12T07:57:29.316Z,101219.48
2023-05-12T07:58:32.159Z,101217.41
2023-05-12T07:59:34.994Z,101215.69
2023-05-12T08:00:38.247Z,101220.38
2023-05-12T08:01:41.396Z,101225.64
2023-05-12T08:02:44.984Z,101218.26
2023-05-12T08:03:48.144Z,101221.48
2023-05-12T08:04:51.640Z,101218.45
2023-05-12T08:05:54.679Z,101219.77
2023-05-12T08:06:57.500Z,101217.82
2023-05-12T08:08:00.444Z,101217.17
2023-05-12T08:09:03.516Z,101215.89
2023-05-12T08:10:06.988Z,101216.42
2023-05-12T08:11:11.505Z,101222.17
2023-05-12T08:12:14.547Z,101215.48
2023-05-12T08:13:17.367Z,101216.55
2023-05-12T08:14:20.231Z,101218.27
2023-05-12T08:15:23.183Z,101211.13
2023-05-12T08:16:26.272Z,101209.98
2023-05-12T08:17:29.413Z,101211.70
2023-05-12T08:18:32.487Z,101211.11
2023-05-12T08:19:35.456Z,101212.87
2023-05-12T08:20:38.335Z,101215.94
2023-05-12T08:21:41.196Z,101220.80
2023-05-12T08:22:44.720Z,101221.80
2023-05-12T08:23:47.587Z,101230.05
2023-05-12T08:24:50.546Z,101223.33
2023-05-12T08:25:53.522Z,101213.13
2023-05-12T08:26:56.498Z,101218.13
2023-05-12T08:27:59.916Z,101209.96
2023-05-12T08:29:02.753Z,101209.15
2023-05-12T08:30:06.234Z,101222.78
2023-05-12T08:31:09.456Z,101213.48
2023-05-12T08:32:12.680Z,101219.08
2023-05-12T08:33:15.678Z,101216.56
2023-05-12T08:34:18.637Z,101212.73
2023-05-12T08:35:21.926Z,101210.02
2023-05-12T08:36:24.966Z,101215.58
2023-05-12T08:37:28.079Z,101222.58
2023-05-12T08:38:32.435Z,101217.41
2023-05-12T08:39:35.642Z,101222.85
2023-05-12T08:40:56.919Z,101222.73
2023-05-12T08:42:21.620Z,101222.94
2023-05-12T08:43:26.682Z,101219.92
2023-05-12T08:44:30.259Z,101222.73
2023-05-12T08:45:37.081Z,101214.14
2023-05-12T08:46:40.887Z,101217.15
2023-05-12T08:47:46.158Z,101224.05
2023-05-12T08:48:52.246Z,101221.45
2023-05-12T08:50:01.037Z,101217.25
2023-05-12T08:51:10.017Z,101218.20
2023-05-12T08:52:15.112Z,101216.40
2023-05-12T08:53:19.294Z,101214.17
2023-05-12T08:54:22.812Z,101207.60
2023-05-12T08:55:31.817Z,101215.10
2023-05-12T08:57:48.430Z,101223.02
2023-05-12T08:58:51.946Z,101220.82
2023-05-12T08:59:56.472Z,101210.19
2023-05-12T09:01:00.759Z,101210.30
2023-05-12T09:02:05.739Z,101204.94
2023-05-12T09:03:09.025Z,101209.96
2023-05-12T09:04:12.012Z,101214.01
2023-05-12T09:05:15.763Z,101218.17
2023-05-12T09:06:18.884Z,101213.08
2023-05-12T09:07:24.676Z,101221.13
2023-05-12T09:08:30.000Z,101214.84
2023-05-12T09:09:34.523Z,101216.58
2023-05-12T09:10:37.725Z,101209.39
2023-05-12T09:11:41.778Z,101203.17
2023-05-12T09:12:47.708Z,101200.84
2023-05-12T09:14:10.231Z,101203.77
2023-05-12T09:15:22.744Z,101209.79
2023-05-12T09:16:29.502Z,101219.25
2023-05-12T09:17:32.451Z,101216.15
2023-05-12T09:18:56.689Z,101215.72
2023-05-12T09:19:59.632Z,101215.70
2023-05-12T09:21:02.476Z,101205.23
2023-05-12T09:22:06.144Z,101211.15
2023-05-12T09:23:20.366Z,101210.81
2023-05-12T09:24:37.813Z,101207.73
2023-05-12T09:25:40.797Z,101207.05
2023-05-12T09:26:51.403Z,101207.27
2023-05-12T09:27:56.816Z,101209.02
2023-05-12T09:29:08.476Z,101208.98
2023-05-12T09:30:12.088Z,101210.42
2023-05-12T09:31:19.978Z,101202.52
2023-05-12T09:32:34.554Z,101208.88
2023-05-12T09:33:37.486Z,101212.15
2023-05-12T09:34:41.667Z,101207.63
2023-05-12T09:35:46.258Z,101214.29
2023-05-12T09:37:00.169Z,101208.88
2023-05-12T09:38:17.040Z,101206.34
2023-05-12T09:39:19.883Z,101197.66
2023-05-12T09:40:22.736Z,101196.06
2023-05-12T09:41:25.748Z,101202.41
2023-05-12T09:42:30.718Z,101199.55
2023-05-12T09:43:33.547Z,101197.73
2023-05-12T09:44:39.272Z,101202.75
2023-05-12T09:45:44.106Z,101198.08
2023-05-12T09:46:48.562Z,101204.99
2023-05-12T09:47:51.470Z,101202.48
2023-05-12T09:48:58.537Z,101198.45
2023-05-12T09:50:03.584Z,101204.08
2023-05-12T09:51:10.925Z,101195.69
2023-05-12T09:52:13.767Z,101194.96
2023-05-12T09:53:20.560Z,101198.95
2023-05-12T09:54:28.439Z,101199.44
2023-05-12T09:55:32.459Z,101198.14
2023-05-12T09:56:38.269Z,101206.59
2023-05-12T09:57:43.917Z,101199.75
2023-05-12T09:58:48.621Z,101202.80
2023-05-12T09:59:53.610Z,101204.81
2023-05-12T10:02:06.179Z,101204.73
2023-05-12T10:03:14.742Z,101201.63
2023-05-12T10:04:17.842Z,101202.27
2023-05-12T10:05:22.532Z,101202.64
2023-05-12T10:06:31.970Z,101195.13
2023-05-12T10:07:35.415Z,101198.92
2023-05-12T10:08:47.343Z,101201.86
2023-05-12T10:09:50.810Z,101193.23
2023-05-12T10:10:56.493Z,101194.77
2023-05-12T10:12:00.594Z,101191.52
2023-05-12T10:13:04.728Z,101190.52
2023-05-12T10:14:09.955Z,101186.11
2023-05-12T10:15:13.706Z,101189.98
2023-05-12T10:16:16.846Z,101186.58
2023-05-12T10:17:20.814Z,101188.13
2023-05-12T10:18:25.075Z,101194.20
2023-05-12T10:19:30.840Z,101195.64
2023-05-12T10:20:35.199Z,101193.48
2023-05-12T10:21:39.777Z,101190.96
2023-05-12T10:22:44.551Z,101194.02
2023-05-12T10:23:48.608Z,101183.20
2023-05-12T10:24:51.801Z,101191.16
2023-05-12T10:26:02.061Z,101183.89
2023-05-12T10:27:06.221Z,101190.90
2023-05-12T10:28:10.000Z,101183.90
2023-05-12T10:29:13.967Z,101183.05
2023-05-12T10:30:17.178Z,101182.24
2023-05-12T10:31:21.313Z,101176.20
2023-05-12T10:32:24.186Z,101177.74
2023-05-12T10:33:27.783Z,101174.73
2023-05-12T10:34:34.171Z,101180.77
2023-05-12T10:35:39.660Z,101184.29
2023-05-12T10:36:48.200Z,101181.04
2023-05-12T10:37:51.209Z,101186.88
2023-05-12T10:38:54.948Z,101182.31
2023-05-12T10:40:01.087Z,101180.55
2023-05-12T10:41:06.991Z,101178.08
2023-05-12T10:42:10.363Z,101174.42
2023-05-12T10:43:26.222Z,101184.80
2023-05-12T10:44:29.528Z,101184.30
2023-05-12T10:45:36.776Z,101182.89
2023-05-12T10:46:39.743Z,101173.73
2023-05-12T10:47:43.057Z,101173.98
2023-05-12T10:48:57.704Z,101176.77
2023-05-12T10:50:00.868Z,101175.02
2023-05-12T10:51:09.006Z,101174.97
2023-05-12T10:52:13.425Z,101174.57
2023-05-12T10:53:16.281Z,101176.14
2023-05-12T10:54:22.035Z,101178.70
2023-05-12T10:55:32.240Z,101181.30
2023-05-12T10:56:41.144Z,101183.98
2023-05-12T10:57:52.642Z,101181.38
2023-05-12T10:59:13.737Z,101181.20
2023-05-12T11:00:22.235Z,101176.75
2023-05-12T11:01:26.228Z,101177.04
2023-05-12T11:02:32.565Z,101175.67
2023-05-12T11:03:37.436Z,101179.68
2023-05-12T11:04:42.720Z,101175.13
2023-05-12T11:05:46.922Z,101177.18
2023-05-12T11:07:01.175Z,101181.10
2023-05-12T11:08:05.534Z,101177.75
2023-05-12T11:09:12.846Z,101171.25
2023-05-12T11:10:17.531Z,101170.33
2023-05-12T11:11:22.617Z,101181.13
2023-05-12T11:12:28.381Z,101178.41
2023-05-12T11:13:31.614Z,101182.23
2023-05-12T11:14:36.070Z,101177.55
2023-05-12T11:15:39.070Z,101175.67
2023-05-12T11:16:45.551Z,101172.72
2023-05-12T11:17:48.497Z,101176.71
2023-05-12T11:19:02.098Z,101167.77
2023-05-12T11:20:05.566Z,101177.65
2023-05-12T11:21:14.873Z,101169.06
2023-05-12T11:22:21.988Z,101174.51
2023-05-12T11:23:32.305Z,101172.23
2023-05-12T11:24:37.136Z,101175.05
2023-05-12T11:25:41.030Z,101180.04
2023-05-12T11:26:45.092Z,101171.17
2023-05-12T11:27:51.382Z,101166.98
2023-05-12T11:28:55.142Z,101161.31
2023-05-12T11:30:00.764Z,101158.09
2023-05-12T11:31:04.493Z,101163.67
2023-05-12T11:32:10.185Z,101162.71
2023-05-12T11:33:13.846Z,101169.67
2023-05-12T11:34:21.789Z,101176.17
2023-05-12T11:35:30.773Z,101174.48
2023-05-12T11:36:42.739Z,101173.99
2023-05-12T11:37:46.948Z,101166.73
2023-05-12T11:38:53.091Z,101162.09
2023-05-12T11:39:56.108Z,101162.21
2023-05-12T11:40:59.562Z,101166.40
2023-05-12T11:42:12.219Z,101167.59
2023-05-12T11:43:22.555Z,101166.95
2023-05-12T11:44:26.557Z,101171.02
2023-05-12T11:45:30.617Z,101171.52
2023-05-12T11:46:33.456Z,101172.42
2023-05-12T11:47:36.402Z,101170.39
2023-05-12T11:48:39.272Z,101170.07
2023-05-12T11:49:54.453Z,101163.78
2023-05-12T11:50:57.338Z,101164.09
2023-05-12T11:52:02.413Z,101168.27
2023-05-12T11:53:05.829Z,101176.23
2023-05-12T11:54:09.452Z,101172.46
2023-05-12T11:55:12.320Z,101164.55
2023-05-12T11:56:20.284Z,101165.13
2023-05-12T11:57:30.405Z,101160.85
2023-05-12T11:58:36.191Z,101159.54
2023-05-12T11:59:39.050Z,101159.80
2023-05-12T12:00:42.270Z,101162.69
2023-05-12T12:01:48.780Z,101156.47
2023-05-12T12:02:51.807Z,101160.36
2023-05-12T12:03:56.065Z,101160.65
2023-05-12T12:04:59.387Z,101155.01
2023-05-12T12:06:06.872Z,101157.42
2023-05-12T12:07:09.866Z,101150.88
2023-05-12T12:08:15.804Z,101147.83
2023-05-12T12:09:18.713Z,101149.31
2023-05-12T12:10:21.899Z,101156.48
2023-05-12T12:11:30.766Z,101161.23
2023-05-12T12:12:33.722Z,101166.23
2023-05-12T12:13:36.731Z,101166.88
2023-05-12T12:14:41.555Z,101162.25
2023-05-12T12:15:44.541Z,101163.84
2023-05-12T12:16:47.389Z,101163.86
2023-05-12T12:17:50.360Z,101164.34